createdAt,value
2018-09-11T00:01:32.043Z,7.73
2018-09-11T00:04:00.164Z,3.17
2018-09-11T00:06:28.256Z,6.90
2018-09-11T00:08:56.355Z,5.67
2018-09-11T00:11:24.460Z,5.30
2018-09-11T00:13:52.530Z,4.53
2018-09-11T00:16:20.631Z,5.57
2018-09-11T00:18:48.707Z,5.87
2018-09-11T00:21:16.896Z,4.80
2018-09-11T00:23:44.971Z,4.67
2018-09-11T00:26:13.077Z,6.33
2018-09-11T00:28:41.220Z,7.23
2018-09-11T00:31:09.288Z,7.58
2018-09-11T00:33:37.414Z,5.33
2018-09-11T00:36:05.529Z,7.67
2018-09-11T00:38:33.626Z,5.13
2018-09-11T00:43:25.105Z,7.97
2018-09-11T00:45:53.267Z,5.47
2018-09-11T00:48:21.339Z,3.50
2018-09-11T00:50:49.419Z,7.37
2018-09-11T00:53:18.154Z,5.87
2018-09-11T00:55:46.226Z,6.23
2018-09-11T00:58:14.330Z,5.47
2018-09-11T01:00:43.173Z,5.63
2018-09-11T01:03:11.251Z,5.00
2018-09-11T01:05:39.335Z,5.23
2018-09-11T01:08:07.494Z,7.23
2018-09-11T01:10:35.619Z,6.07
2018-09-11T01:13:03.700Z,6.00
2018-09-11T01:15:31.801Z,5.13
2018-09-11T01:17:59.889Z,6.73
2018-09-11T01:20:27.972Z,5.70
2018-09-11T01:22:56.058Z,6.13
2018-09-11T01:25:24.151Z,4.95
2018-09-11T01:27:52.247Z,7.70
2018-09-11T01:30:21.737Z,7.55
2018-09-11T01:32:50.787Z,9.37
2018-09-11T01:35:19.147Z,8.90
2018-09-11T01:37:47.440Z,5.53
2018-09-11T01:40:15.584Z,5.80
2018-09-11T01:42:43.691Z,10.47
2018-09-11T01:45:11.767Z,8.10
2018-09-11T01:47:39.887Z,6.03
2018-09-11T01:50:07.973Z,4.10
2018-09-11T01:52:36.075Z,5.47
2018-09-11T01:55:04.232Z,4.30
2018-09-11T01:57:32.310Z,10.07
2018-09-11T02:00:00.429Z,6.30
2018-09-11T02:02:28.567Z,7.93
2018-09-11T02:04:56.650Z,5.57
2018-09-11T02:07:24.751Z,6.40
2018-09-11T02:09:52.838Z,9.90
2018-09-11T02:12:20.945Z,7.57
2018-09-11T02:14:49.096Z,5.70
2018-09-11T02:17:17.150Z,6.80
2018-09-11T02:19:45.255Z,6.73
2018-09-11T02:22:13.322Z,7.30
2018-09-11T02:24:41.454Z,8.67
2018-09-11T02:27:09.542Z,6.07
2018-09-11T02:29:37.624Z,11.20
2018-09-11T02:32:05.747Z,6.70
2018-09-11T02:34:33.830Z,6.77
2018-09-11T02:37:01.931Z,8.57
2018-09-11T02:39:30.038Z,8.50
2018-09-11T02:41:58.118Z,4.83
2018-09-11T02:44:26.282Z,8.37
2018-09-11T02:46:54.379Z,5.37
2018-09-11T02:49:22.527Z,9.27
2018-09-11T02:51:50.594Z,6.60
2018-09-11T02:54:18.663Z,6.13
2018-09-11T02:56:46.742Z,6.30
2018-09-11T02:59:14.839Z,7.67
2018-09-11T03:01:43.040Z,11.63
2018-09-11T03:04:11.112Z,6.83
2018-09-11T03:06:39.188Z,8.80
2018-09-11T03:09:07.379Z,7.73
2018-09-11T03:11:35.564Z,8.73
2018-09-11T03:14:03.654Z,6.87
2018-09-11T03:16:31.794Z,11.30
2018-09-11T03:18:59.983Z,8.67
2018-09-11T03:21:28.028Z,9.48
2018-09-11T03:23:56.124Z,7.30
2018-09-11T03:26:24.226Z,10.30
2018-09-11T03:28:52.340Z,6.27
2018-09-11T03:31:20.431Z,8.23
2018-09-11T03:33:48.516Z,8.10
2018-09-11T03:36:16.590Z,10.23
2018-09-11T03:38:44.668Z,10.10
2018-09-11T03:41:12.730Z,10.07
2018-09-11T03:43:40.851Z,7.73
2018-09-11T03:46:09.054Z,8.37
2018-09-11T03:48:37.159Z,9.73
2018-09-11T03:51:05.333Z,7.00
2018-09-11T03:53:33.396Z,12.47
2018-09-11T03:56:01.472Z,7.63
2018-09-11T03:58:29.615Z,6.83
2018-09-11T04:00:57.718Z,10.60
2018-09-11T04:03:25.829Z,7.93
2018-09-11T04:05:53.906Z,8.07
2018-09-11T04:08:22.036Z,8.23
2018-09-11T04:10:50.128Z,10.17
2018-09-11T04:13:18.207Z,11.87
2018-09-11T04:15:46.318Z,15.43
2018-09-11T04:18:14.406Z,10.87
2018-09-11T04:20:42.515Z,9.80
2018-09-11T04:23:10.603Z,8.80
2018-09-11T04:25:38.738Z,9.50
2018-09-11T04:28:06.786Z,13.50
2018-09-11T04:30:34.863Z,10.93
2018-09-11T04:33:03.283Z,9.20
2018-09-11T04:35:31.419Z,7.27
2018-09-11T04:37:59.531Z,8.83
2018-09-11T04:40:27.718Z,13.57
2018-09-11T04:42:55.904Z,8.73
2018-09-11T04:45:23.985Z,9.50
2018-09-11T04:47:52.106Z,15.80
2018-09-11T04:50:20.185Z,11.37
2018-09-11T04:52:48.270Z,11.63
2018-09-11T04:55:16.339Z,12.13
2018-09-11T04:57:44.464Z,8.83
2018-09-11T05:00:12.591Z,12.10
2018-09-11T05:02:40.663Z,12.07
2018-09-11T05:05:08.765Z,8.47
2018-09-11T05:07:36.856Z,8.73
2018-09-11T05:10:05.010Z,10.57
2018-09-11T05:12:33.094Z,7.57
2018-09-11T05:15:01.201Z,11.00
2018-09-11T05:17:29.330Z,8.20
2018-09-11T05:19:57.411Z,8.53
2018-09-11T05:22:25.495Z,6.93
2018-09-11T05:24:53.566Z,5.70
2018-09-11T05:27:21.680Z,6.93
2018-09-11T05:29:49.759Z,8.37
2018-09-11T05:32:17.962Z,9.03
2018-09-11T05:34:46.094Z,7.93
2018-09-11T05:37:14.188Z,12.73
2018-09-11T05:39:42.287Z,8.20
2018-09-11T05:42:10.390Z,8.80
2018-09-11T05:44:38.465Z,14.67
2018-09-11T05:47:06.554Z,7.33
2018-09-11T05:49:34.639Z,8.47
2018-09-11T05:52:02.699Z,8.77
2018-09-11T05:54:30.873Z,6.20
2018-09-11T05:56:58.950Z,8.07
2018-09-11T05:59:27.061Z,8.87
2018-09-11T06:01:55.155Z,13.47
2018-09-11T06:04:23.243Z,9.87
2018-09-11T06:06:51.374Z,9.23
2018-09-11T06:09:19.458Z,8.63
2018-09-11T06:11:47.667Z,5.87
2018-09-11T06:14:17.500Z,13.53
2018-09-11T06:16:45.567Z,9.13
2018-09-11T06:19:13.666Z,8.30
2018-09-11T06:21:41.824Z,13.28
2018-09-11T06:24:09.986Z,9.03
2018-09-11T06:26:38.061Z,9.73
2018-09-11T06:29:06.171Z,9.53
2018-09-11T06:31:34.341Z,9.27
2018-09-11T06:34:02.585Z,8.73
2018-09-11T06:36:30.967Z,11.37
2018-09-11T06:38:59.143Z,6.83
2018-09-11T06:41:27.220Z,7.27
2018-09-11T06:43:55.952Z,6.93
2018-09-11T06:46:24.091Z,9.07
2018-09-11T06:48:52.190Z,6.93
2018-09-11T06:51:20.299Z,7.50
2018-09-11T06:53:48.370Z,10.47
2018-09-11T06:56:16.550Z,12.67
2018-09-11T06:58:44.626Z,8.17
2018-09-11T07:01:12.723Z,8.33
2018-09-11T07:03:40.800Z,8.00
2018-09-11T07:06:08.904Z,7.10
2018-09-11T07:08:37.056Z,8.93
2018-09-11T07:11:05.279Z,8.93
2018-09-11T07:13:33.390Z,7.07
2018-09-11T07:16:01.492Z,6.83
2018-09-11T07:18:29.592Z,7.90
2018-09-11T07:20:57.733Z,9.20
2018-09-11T07:23:25.902Z,8.03
2018-09-11T07:25:54.039Z,8.97
2018-09-11T07:28:22.135Z,10.78
2018-09-11T07:30:50.304Z,9.77
2018-09-11T07:33:18.530Z,6.13
2018-09-11T07:35:46.670Z,8.73
2018-09-11T07:38:15.742Z,7.50
2018-09-11T07:40:43.922Z,6.77
2018-09-11T07:43:12.022Z,8.03
2018-09-11T07:45:40.094Z,8.23
2018-09-11T07:48:08.299Z,9.23
2018-09-11T07:50:36.470Z,7.97
2018-09-11T07:53:04.577Z,10.00
2018-09-11T07:55:32.648Z,8.07
2018-09-11T07:58:00.895Z,9.10
2018-09-11T08:00:29.024Z,8.80
2018-09-11T08:02:57.156Z,7.83
2018-09-11T08:05:25.272Z,8.80
2018-09-11T08:07:53.395Z,7.42
2018-09-11T08:10:21.478Z,6.33
2018-09-11T08:12:49.598Z,7.65
2018-09-11T08:15:17.815Z,6.80
2018-09-11T08:17:45.917Z,7.62
2018-09-11T08:20:14.029Z,5.70
2018-09-11T08:22:42.145Z,9.25
2018-09-11T08:25:10.247Z,9.03
2018-09-11T08:27:38.368Z,5.35
2018-09-11T08:30:06.621Z,7.08
2018-09-11T08:32:34.752Z,6.27
2018-09-11T08:35:02.920Z,6.30
2018-09-11T08:37:31.035Z,6.12
2018-09-11T08:39:59.091Z,7.95
2018-09-11T08:42:27.158Z,4.92
2018-09-11T08:44:55.248Z,6.50
2018-09-11T08:47:23.356Z,8.23
2018-09-11T08:49:51.449Z,5.53
2018-09-11T08:52:19.597Z,6.67
2018-09-11T08:54:47.690Z,7.33
2018-09-11T08:57:15.869Z,4.50
2018-09-11T08:59:44.019Z,8.20
2018-09-11T09:02:12.099Z,6.12
2018-09-11T09:04:40.202Z,7.60
2018-09-11T09:07:08.334Z,4.87
2018-09-11T09:09:36.466Z,6.50
2018-09-11T09:12:04.583Z,10.08
2018-09-11T09:14:32.655Z,4.42
2018-09-11T09:17:00.768Z,9.58
2018-09-11T09:19:28.867Z,6.45
2018-09-11T09:21:57.042Z,8.80
2018-09-11T09:24:25.162Z,5.15
2018-09-11T09:26:53.243Z,7.17
2018-09-11T09:29:21.325Z,3.55
2018-09-11T09:31:49.419Z,6.50
2018-09-11T09:34:17.487Z,5.08
2018-09-11T09:36:45.663Z,9.88
2018-09-11T09:39:13.712Z,6.78
2018-09-11T09:41:41.923Z,6.50
2018-09-11T09:44:10.011Z,5.35
2018-09-11T09:46:38.119Z,5.78
2018-09-11T09:49:06.284Z,4.40
2018-09-11T09:51:34.375Z,7.28
2018-09-11T09:54:02.535Z,9.18
2018-09-11T09:56:30.703Z,7.08
2018-09-11T09:58:58.823Z,7.92
2018-09-11T10:01:32.524Z,8.05
2018-09-11T10:04:00.670Z,4.95
2018-09-11T10:06:28.763Z,6.80
2018-09-11T10:08:56.939Z,5.50
2018-09-11T10:11:25.165Z,6.75
2018-09-11T10:13:53.272Z,7.40
2018-09-11T10:16:21.450Z,5.70
2018-09-11T10:18:49.556Z,8.98
2018-09-11T10:21:17.710Z,7.47
2018-09-11T10:23:45.818Z,4.28
2018-09-11T10:26:14.011Z,5.83
2018-09-11T10:28:42.133Z,3.65
2018-09-11T10:31:10.234Z,6.50
2018-09-11T10:33:38.387Z,4.30
2018-09-11T10:36:06.453Z,8.40
2018-09-11T10:38:34.659Z,5.17
2018-09-11T10:41:02.774Z,5.42
2018-09-11T10:43:30.922Z,7.22
2018-09-11T10:45:59.085Z,4.62
2018-09-11T10:48:27.162Z,3.83
2018-09-11T10:50:55.274Z,3.45
2018-09-11T10:53:23.399Z,3.77
2018-09-11T10:55:51.519Z,2.98
2018-09-11T10:58:19.671Z,4.55
2018-09-11T11:00:47.833Z,6.00
2018-09-11T11:03:15.984Z,4.28
2018-09-11T11:05:44.079Z,4.15
2018-09-11T11:08:12.231Z,3.95
2018-09-11T11:10:40.371Z,4.60
2018-09-11T11:13:08.655Z,4.97
2018-09-11T11:15:36.828Z,2.50
2018-09-11T11:18:05.199Z,4.10
2018-09-11T11:20:33.293Z,3.60
2018-09-11T11:23:01.420Z,4.12
2018-09-11T11:25:29.529Z,2.92
2018-09-11T11:27:57.645Z,3.47
2018-09-11T11:30:29.420Z,4.60
2018-09-11T11:32:57.524Z,4.55
2018-09-11T11:35:25.819Z,5.03
2018-09-11T11:37:53.951Z,7.42
2018-09-11T11:40:22.103Z,7.15
2018-09-11T11:42:50.343Z,6.53
2018-09-11T11:45:18.435Z,3.92
2018-09-11T11:47:46.542Z,4.65
2018-09-11T11:50:14.669Z,7.90
2018-09-11T11:52:42.807Z,6.47
2018-09-11T11:55:11.047Z,5.30
2018-09-11T11:57:39.088Z,3.75
2018-09-11T12:00:07.175Z,5.15
2018-09-11T12:02:35.361Z,4.78
2018-09-11T12:05:03.517Z,4.70
2018-09-11T12:07:31.755Z,5.30
2018-09-11T12:09:59.940Z,4.45
2018-09-11T12:12:28.175Z,5.17
2018-09-11T12:14:56.268Z,3.45
2018-09-11T12:17:24.370Z,5.62
2018-09-11T12:19:52.479Z,5.23
2018-09-11T12:22:20.564Z,3.37
2018-09-11T12:24:48.883Z,6.90
2018-09-11T12:27:16.963Z,4.40
2018-09-11T12:29:45.063Z,3.80
2018-09-11T12:32:13.353Z,4.67
2018-09-11T12:34:41.580Z,7.78
2018-09-11T12:37:09.698Z,2.77
2018-09-11T12:39:37.811Z,2.55
2018-09-11T12:42:05.890Z,3.15
2018-09-11T12:44:35.023Z,8.23
2018-09-11T12:47:03.322Z,5.35
2018-09-11T12:49:31.283Z,5.03
2018-09-11T12:51:59.359Z,3.67
2018-09-11T12:54:28.996Z,6.55
2018-09-11T12:56:57.080Z,5.90
2018-09-11T12:59:25.255Z,4.53
2018-09-11T13:01:53.387Z,3.20
2018-09-11T13:04:21.486Z,2.60
2018-09-11T13:06:49.570Z,4.72
2018-09-11T13:09:17.789Z,2.40
2018-09-11T13:11:45.838Z,2.65
2018-09-11T13:14:14.143Z,5.72
2018-09-11T13:16:42.520Z,2.98
2018-09-11T13:19:10.587Z,5.05
2018-09-11T13:21:38.712Z,3.08
2018-09-11T13:24:06.884Z,10.88
2018-09-11T13:26:35.007Z,2.72
2018-09-11T13:29:03.115Z,4.50
2018-09-11T13:31:31.262Z,2.55
2018-09-11T13:33:59.356Z,3.02
2018-09-11T13:36:27.442Z,3.40
2018-09-11T13:38:55.543Z,5.28
2018-09-11T13:41:23.655Z,6.17
2018-09-11T13:43:51.799Z,5.60
2018-09-11T13:46:19.886Z,6.53
2018-09-11T13:48:47.964Z,9.45
2018-09-11T13:51:16.063Z,3.95
2018-09-11T13:53:44.198Z,2.62
2018-09-11T13:56:12.412Z,3.87
2018-09-11T13:58:40.503Z,4.30
2018-09-11T14:01:08.796Z,3.17
2018-09-11T14:03:36.931Z,3.52
2018-09-11T14:06:05.817Z,2.60
2018-09-11T14:08:34.230Z,2.75
2018-09-11T14:11:02.377Z,3.00
2018-09-11T14:13:30.524Z,9.08
2018-09-11T14:15:58.675Z,3.42
2018-09-11T14:18:26.831Z,1.80
2018-09-11T14:20:54.981Z,2.02
2018-09-11T14:23:23.085Z,3.37
2018-09-11T14:25:51.245Z,3.85
2018-09-11T14:28:19.328Z,3.27
2018-09-11T14:30:47.432Z,2.98
2018-09-11T14:33:15.767Z,5.90
2018-09-11T14:35:43.851Z,5.12
2018-09-11T14:38:11.944Z,5.03
2018-09-11T14:40:40.079Z,2.02
2018-09-11T14:43:08.231Z,2.35
2018-09-11T14:45:36.343Z,5.62
2018-09-11T14:48:04.758Z,4.30
2018-09-11T14:50:32.976Z,7.53
2018-09-11T14:53:01.090Z,4.75
2018-09-11T14:55:29.325Z,3.35
2018-09-11T14:57:57.415Z,2.15
2018-09-11T15:00:25.658Z,2.65
2018-09-11T15:02:53.829Z,2.45
2018-09-11T15:05:21.926Z,8.98
2018-09-11T15:07:50.055Z,4.60
2018-09-11T15:10:18.147Z,8.25
2018-09-11T15:12:46.223Z,3.65
2018-09-11T15:15:14.399Z,2.70
2018-09-11T15:17:42.592Z,5.45
2018-09-11T15:20:10.675Z,2.40
2018-09-11T15:22:38.868Z,5.15
2018-09-11T15:25:06.904Z,2.80
2018-09-11T15:27:35.016Z,6.70
2018-09-11T15:30:03.214Z,6.65
2018-09-11T15:32:31.252Z,7.37
2018-09-11T15:34:59.359Z,5.62
2018-09-11T15:37:29.550Z,3.55
2018-09-11T15:39:58.205Z,2.27
2018-09-11T15:42:26.378Z,5.72
2018-09-11T15:44:54.476Z,3.95
2018-09-11T15:47:22.603Z,6.37
2018-09-11T15:49:50.806Z,3.72
2018-09-11T15:52:18.983Z,2.80
2018-09-11T15:54:47.157Z,6.15
2018-09-11T15:57:15.277Z,2.85
2018-09-11T15:59:43.403Z,5.78
2018-09-11T16:02:11.500Z,1.90
2018-09-11T16:04:39.598Z,4.50
2018-09-11T16:07:07.877Z,2.60
2018-09-11T16:09:35.920Z,3.90
2018-09-11T16:12:03.992Z,5.08
2018-09-11T16:14:32.098Z,3.92
2018-09-11T16:17:00.231Z,5.30
2018-09-11T16:19:28.327Z,2.85
2018-09-11T16:21:56.450Z,2.75
2018-09-11T16:24:24.522Z,3.85
2018-09-11T16:26:52.586Z,6.10
2018-09-11T16:29:20.711Z,4.50
2018-09-11T16:31:48.828Z,6.67
2018-09-11T16:34:16.917Z,5.62
2018-09-11T16:36:45.029Z,4.95
2018-09-11T16:39:13.477Z,3.98
2018-09-11T16:41:41.891Z,6.72
2018-09-11T16:44:10.029Z,4.53
2018-09-11T16:46:38.643Z,5.60
2018-09-11T16:49:07.299Z,6.55
2018-09-11T16:51:35.738Z,7.37
2018-09-11T16:54:04.149Z,9.10
2018-09-11T16:56:32.267Z,7.08
2018-09-11T16:59:00.399Z,7.15
2018-09-11T17:01:28.579Z,6.87
2018-09-11T17:03:56.719Z,14.05
2018-09-11T17:06:25.061Z,4.78
2018-09-11T17:08:53.191Z,9.25
2018-09-11T17:11:21.367Z,5.35
2018-09-11T17:13:49.456Z,12.53
2018-09-11T17:16:17.634Z,7.20
2018-09-11T17:18:46.003Z,5.50
2018-09-11T17:21:14.097Z,4.65
2018-09-11T17:23:42.308Z,9.03
2018-09-11T17:26:10.442Z,8.43
2018-09-11T17:28:38.530Z,4.58
2018-09-11T17:31:06.614Z,9.63
2018-09-11T17:33:34.784Z,8.35
2018-09-11T17:36:02.905Z,12.98
2018-09-11T17:38:31.031Z,7.03
2018-09-11T17:40:59.155Z,8.75
2018-09-11T17:43:27.390Z,6.70
2018-09-11T17:45:55.515Z,8.75
2018-09-11T17:48:23.793Z,9.43
2018-09-11T17:50:52.117Z,14.65
2018-09-11T17:53:20.399Z,14.15
2018-09-11T17:55:48.578Z,10.08
2018-09-11T17:58:16.703Z,9.98
2018-09-11T18:00:44.824Z,12.33
2018-09-11T18:03:13.019Z,11.08
2018-09-11T18:05:41.123Z,11.75
2018-09-11T18:08:09.226Z,7.70
2018-09-11T18:10:37.356Z,9.58
2018-09-11T18:13:05.436Z,13.03
2018-09-11T18:15:33.550Z,14.07
2018-09-11T18:18:01.667Z,12.63
2018-09-11T18:20:29.786Z,14.25
2018-09-11T18:22:57.893Z,13.98
2018-09-11T18:25:26.007Z,9.80
2018-09-11T18:27:54.095Z,9.90
2018-09-11T18:30:22.206Z,7.78
2018-09-11T18:32:50.398Z,9.85
2018-09-11T18:35:18.486Z,10.40
2018-09-11T18:37:48.705Z,12.50
2018-09-11T18:40:16.775Z,13.37
2018-09-11T18:42:44.898Z,11.10
2018-09-11T18:45:12.997Z,10.20
2018-09-11T18:47:41.111Z,11.65
2018-09-11T18:50:09.239Z,10.08
2018-09-11T18:52:37.427Z,14.28
2018-09-11T18:55:05.546Z,10.13
2018-09-11T18:57:33.656Z,12.80
2018-09-11T19:00:01.735Z,10.23
2018-09-11T19:02:29.827Z,10.32
2018-09-11T19:04:57.952Z,11.15
2018-09-11T19:07:26.015Z,12.10
2018-09-11T19:09:54.135Z,13.28
2018-09-11T19:12:22.924Z,11.25
2018-09-11T19:14:51.014Z,12.50
2018-09-11T19:17:20.352Z,15.80
2018-09-11T19:19:48.724Z,11.08
2018-09-11T19:22:17.108Z,11.78
2018-09-11T19:24:47.635Z,10.50
2018-09-11T19:27:16.612Z,9.18
2018-09-11T19:29:46.296Z,15.10
2018-09-11T19:32:17.327Z,11.03
2018-09-11T19:34:46.039Z,10.13
2018-09-11T19:37:18.906Z,13.00
2018-09-11T19:39:47.647Z,9.00
2018-09-11T19:42:16.633Z,15.28
2018-09-11T19:45:13.921Z,9.40
2018-09-11T19:47:46.518Z,11.88
2018-09-11T19:50:26.258Z,7.37
2018-09-11T19:52:58.068Z,11.20
2018-09-11T19:55:33.142Z,10.78
2018-09-11T19:58:03.010Z,8.13
2018-09-11T20:00:32.253Z,13.13
2018-09-11T20:03:00.428Z,11.85
2018-09-11T20:05:28.543Z,9.13
2018-09-11T20:07:57.018Z,11.68
2018-09-11T20:10:25.104Z,6.55
2018-09-11T20:12:53.275Z,8.98
2018-09-11T20:15:21.607Z,11.33
2018-09-11T20:17:50.236Z,9.45
2018-09-11T20:20:18.323Z,14.60
2018-09-11T20:22:46.416Z,10.90
2018-09-11T20:25:14.552Z,9.00
2018-09-11T20:27:43.281Z,10.98
2018-09-11T20:30:11.791Z,13.25
2018-09-11T20:32:40.663Z,9.63
2018-09-11T20:35:08.838Z,13.58
2018-09-11T20:37:37.026Z,10.03
2018-09-11T20:40:07.199Z,14.23
2018-09-11T20:42:35.307Z,8.70
2018-09-11T20:45:03.541Z,12.43
2018-09-11T20:47:31.787Z,15.85
2018-09-11T20:50:00.194Z,10.93
2018-09-11T20:52:28.319Z,10.95
2018-09-11T20:54:56.427Z,6.72
2018-09-11T20:57:24.499Z,13.18
2018-09-11T20:59:52.622Z,14.60
2018-09-11T21:02:20.727Z,13.55
2018-09-11T21:04:48.941Z,8.80
2018-09-11T21:07:17.051Z,10.80
2018-09-11T21:09:45.279Z,11.48
2018-09-11T21:12:13.519Z,10.13
2018-09-11T21:14:41.771Z,12.47
2018-09-11T21:17:09.888Z,11.75
2018-09-11T21:19:37.987Z,9.80
2018-09-11T21:22:06.095Z,11.97
2018-09-11T21:24:34.215Z,10.43
2018-09-11T21:27:02.282Z,14.20
2018-09-11T21:29:30.375Z,10.40
2018-09-11T21:31:58.605Z,12.98
2018-09-11T21:34:26.702Z,10.78
2018-09-11T21:36:54.787Z,13.40
2018-09-11T21:39:22.858Z,15.83
2018-09-11T21:41:50.935Z,9.93
2018-09-11T21:44:19.068Z,12.03
2018-09-11T21:46:49.062Z,9.15
2018-09-11T21:49:17.153Z,14.40
2018-09-11T21:51:45.239Z,11.15
2018-09-11T21:54:13.319Z,9.20
2018-09-11T21:56:41.447Z,13.20
2018-09-11T21:59:09.875Z,11.93
2018-09-11T22:01:43.962Z,10.32
2018-09-11T22:04:12.250Z,14.10
2018-09-11T22:06:40.339Z,13.15
2018-09-11T22:09:09.720Z,15.13
2018-09-11T22:11:37.899Z,9.78
2018-09-11T22:14:05.995Z,12.25
2018-09-11T22:16:34.142Z,17.35
2018-09-11T22:19:09.133Z,16.48
2018-09-11T22:21:37.662Z,12.13
2018-09-11T22:24:05.807Z,13.03
2018-09-11T22:26:34.546Z,14.45
2018-09-11T22:29:02.706Z,13.68
2018-09-11T22:31:31.074Z,13.18
2018-09-11T22:33:59.201Z,13.45
2018-09-11T22:36:27.299Z,16.97
2018-09-11T22:38:55.422Z,12.10
2018-09-11T22:41:23.507Z,9.48
2018-09-11T22:43:52.042Z,10.32
2018-09-11T22:46:20.275Z,13.68
2018-09-11T22:48:48.395Z,15.83
2018-09-11T22:51:16.482Z,13.55
2018-09-11T22:53:45.454Z,13.38
2018-09-11T22:56:13.824Z,15.45
2018-09-11T22:58:41.937Z,13.30
2018-09-11T23:01:10.019Z,13.88
2018-09-11T23:03:38.092Z,11.45
2018-09-11T23:06:06.330Z,15.03
2018-09-11T23:08:34.490Z,16.37
2018-09-11T23:11:02.591Z,10.40
2018-09-11T23:13:30.739Z,15.05
2018-09-11T23:15:58.938Z,11.22
2018-09-11T23:18:27.164Z,14.80
2018-09-11T23:20:55.242Z,10.80
2018-09-11T23:23:23.351Z,12.53
2018-09-11T23:25:51.494Z,10.65
2018-09-11T23:28:19.579Z,10.30
2018-09-11T23:30:47.664Z,11.35
2018-09-11T23:33:15.888Z,11.85
2018-09-11T23:35:44.104Z,9.75
2018-09-11T23:38:12.252Z,9.08
2018-09-11T23:40:40.371Z,14.75
2018-09-11T23:43:08.468Z,11.95
2018-09-11T23:45:36.573Z,15.00
2018-09-11T23:48:04.736Z,11.15
2018-09-11T23:50:32.862Z,7.72
2018-09-11T23:53:00.948Z,11.85
2018-09-11T23:55:29.016Z,12.13
2018-09-11T23:57:57.103Z,11.35
